createdAt,value
2023-01-27T00:02:06.322Z,0.50
2023-01-27T00:04:38.047Z,0.55
2023-01-27T00:07:08.387Z,0.68
2023-01-27T00:09:38.996Z,0.60
2023-01-27T00:12:30.909Z,0.50
2023-01-27T00:15:03.697Z,0.60
2023-01-27T00:17:34.243Z,0.50
2023-01-27T00:20:05.172Z,0.60
2023-01-27T00:22:53.935Z,0.60
2023-01-27T00:25:24.726Z,0.50
2023-01-27T00:27:55.228Z,0.30
2023-01-27T00:30:26.049Z,0.88
2023-01-27T00:33:14.286Z,0.68
2023-01-27T00:35:44.962Z,0.60
2023-01-27T00:38:15.635Z,0.65
2023-01-27T00:41:05.735Z,0.57
2023-01-27T00:43:35.994Z,0.73
2023-01-27T00:46:06.649Z,0.80
2023-01-27T00:48:37.328Z,0.32
2023-01-27T00:51:07.901Z,0.60
2023-01-27T00:53:38.371Z,0.80
2023-01-27T00:56:09.648Z,0.60
2023-01-27T00:58:40.389Z,0.50
2023-01-27T01:01:15.649Z,0.80
2023-01-27T01:03:46.888Z,0.50
2023-01-27T01:06:19.577Z,0.73
2023-01-27T01:08:50.426Z,1.00
2023-01-27T01:11:23.873Z,0.75
2023-01-27T01:13:56.298Z,0.75
2023-01-27T01:16:28.352Z,0.57
2023-01-27T01:19:00.007Z,0.70
2023-01-27T01:21:30.551Z,0.82
2023-01-27T01:24:01.223Z,0.80
2023-01-27T01:26:31.554Z,0.98
2023-01-27T01:29:01.912Z,0.85
2023-01-27T01:31:32.243Z,0.82
2023-01-27T01:34:02.847Z,0.60
2023-01-27T01:36:33.109Z,0.80
2023-01-27T01:39:03.518Z,0.70
2023-01-27T01:41:33.826Z,0.98
2023-01-27T01:44:23.564Z,0.88
2023-01-27T01:46:54.053Z,1.10
2023-01-27T01:49:31.701Z,0.80
2023-01-27T01:52:09.582Z,0.90
2023-01-27T01:54:54.165Z,0.70
2023-01-27T01:57:30.616Z,0.68
2023-01-27T02:00:11.514Z,0.90
2023-01-27T02:02:43.165Z,0.50
2023-01-27T02:05:20.084Z,0.80
2023-01-27T02:08:05.735Z,1.10
2023-01-27T02:10:37.275Z,0.75
2023-01-27T02:13:07.755Z,0.80
2023-01-27T02:15:38.266Z,0.70
2023-01-27T02:18:09.776Z,0.90
2023-01-27T02:20:50.509Z,0.73
2023-01-27T02:23:38.675Z,0.90
2023-01-27T02:26:34.722Z,0.90
2023-01-27T02:29:14.304Z,0.70
2023-01-27T02:31:45.321Z,0.85
2023-01-27T02:34:23.377Z,0.70
2023-01-27T02:36:58.371Z,1.00
2023-01-27T02:39:49.309Z,1.02
2023-01-27T02:42:21.647Z,0.90
2023-01-27T02:44:51.969Z,1.10
2023-01-27T02:47:22.317Z,0.90
2023-01-27T02:49:52.699Z,1.27
2023-01-27T02:52:24.255Z,0.98
2023-01-27T02:54:54.765Z,1.10
2023-01-27T02:57:25.127Z,0.80
2023-01-27T02:59:55.593Z,0.80
2023-01-27T03:02:32.127Z,1.20
2023-01-27T03:05:02.750Z,1.17
2023-01-27T03:07:32.989Z,1.40
2023-01-27T03:10:03.449Z,1.17
2023-01-27T03:12:33.950Z,1.10
2023-01-27T03:15:21.944Z,1.10
2023-01-27T03:18:10.173Z,1.02
2023-01-27T03:20:41.092Z,1.20
2023-01-27T03:23:11.844Z,0.95
2023-01-27T03:25:49.997Z,1.40
2023-01-27T03:28:20.296Z,1.33
2023-01-27T03:30:50.810Z,1.20
2023-01-27T03:33:21.122Z,1.15
2023-01-27T03:35:51.476Z,1.30
2023-01-27T03:38:39.911Z,1.02
2023-01-27T03:41:27.897Z,1.13
2023-01-27T03:44:16.012Z,0.90
2023-01-27T03:46:46.370Z,1.10
2023-01-27T03:49:16.719Z,1.23
2023-01-27T03:51:46.976Z,1.25
2023-01-27T03:54:20.171Z,1.10
2023-01-27T03:56:50.409Z,1.30
2023-01-27T03:59:20.795Z,1.10
2023-01-27T04:01:51.157Z,1.15
2023-01-27T04:04:39.478Z,1.20
2023-01-27T04:07:10.635Z,0.80
2023-01-27T04:09:41.113Z,1.20
2023-01-27T04:12:13.203Z,0.90
2023-01-27T04:14:46.128Z,1.45
2023-01-27T04:17:18.778Z,1.27
2023-01-27T04:19:49.708Z,1.30
2023-01-27T04:22:20.527Z,1.30
2023-01-27T04:24:52.106Z,1.42
2023-01-27T04:27:22.419Z,1.48
2023-01-27T04:29:52.601Z,1.25
2023-01-27T04:32:22.950Z,1.58
2023-01-27T04:34:53.534Z,1.40
2023-01-27T04:37:23.920Z,1.20
2023-01-27T04:39:54.318Z,1.23
2023-01-27T04:42:24.573Z,1.15
2023-01-27T04:44:54.809Z,1.67
2023-01-27T04:47:25.593Z,1.58
2023-01-27T04:49:56.377Z,1.25
2023-01-27T04:52:26.681Z,1.30
2023-01-27T04:54:57.108Z,1.17
2023-01-27T04:57:29.101Z,1.45
2023-01-27T04:59:59.373Z,1.10
2023-01-27T05:02:29.726Z,1.30
2023-01-27T05:04:59.995Z,1.23
2023-01-27T05:07:32.113Z,1.65
2023-01-27T05:10:02.814Z,1.60
2023-01-27T05:12:33.035Z,1.40
2023-01-27T05:15:07.051Z,1.40
2023-01-27T05:17:37.613Z,1.30
2023-01-27T05:20:08.172Z,1.20
2023-01-27T05:22:38.330Z,1.05
2023-01-27T05:25:09.015Z,1.10
2023-01-27T05:27:39.456Z,1.20
2023-01-27T05:30:11.007Z,1.17
2023-01-27T05:32:41.248Z,1.60
2023-01-27T05:35:12.371Z,1.30
2023-01-27T05:37:42.920Z,1.25
2023-01-27T05:40:17.885Z,1.30
2023-01-27T05:42:48.039Z,1.10
2023-01-27T05:45:18.314Z,1.17
2023-01-27T05:47:52.939Z,1.10
2023-01-27T05:50:23.124Z,1.70
2023-01-27T05:52:53.274Z,1.13
2023-01-27T05:55:23.436Z,1.10
2023-01-27T05:57:53.595Z,1.25
2023-01-27T06:00:24.312Z,1.45
2023-01-27T06:02:54.659Z,1.33
2023-01-27T06:05:25.004Z,1.50
2023-01-27T06:07:57.433Z,1.40
2023-01-27T06:10:27.989Z,1.25
2023-01-27T06:12:58.346Z,1.30
2023-01-27T06:15:28.576Z,1.15
2023-01-27T06:17:58.797Z,1.02
2023-01-27T06:20:29.018Z,1.30
2023-01-27T06:22:59.688Z,1.23
2023-01-27T06:25:29.978Z,1.20
2023-01-27T06:28:00.814Z,1.27
2023-01-27T06:30:31.055Z,1.20
2023-01-27T06:33:01.245Z,0.90
2023-01-27T06:35:32.147Z,1.45
2023-01-27T06:38:03.595Z,1.27
2023-01-27T06:40:35.360Z,1.20
2023-01-27T06:43:05.952Z,1.30
2023-01-27T06:45:36.153Z,0.93
2023-01-27T06:48:06.680Z,1.35
2023-01-27T06:50:37.021Z,1.10
2023-01-27T06:53:09.266Z,1.30
2023-01-27T06:55:46.526Z,1.10
2023-01-27T06:58:18.317Z,1.02
2023-01-27T07:00:49.522Z,1.27
2023-01-27T07:03:19.915Z,1.27
2023-01-27T07:05:50.413Z,1.15
2023-01-27T07:08:29.296Z,1.10
2023-01-27T07:11:00.157Z,1.35
2023-01-27T07:13:30.326Z,1.52
2023-01-27T07:16:01.993Z,1.10
2023-01-27T07:18:32.788Z,1.27
2023-01-27T07:21:02.987Z,1.98
2023-01-27T07:23:33.162Z,1.30
2023-01-27T07:26:19.295Z,1.85
2023-01-27T07:28:53.957Z,2.88
2023-01-27T07:31:24.724Z,2.20
2023-01-27T07:33:56.088Z,1.30
2023-01-27T07:36:26.313Z,1.10
2023-01-27T07:38:56.600Z,1.30
2023-01-27T07:41:27.927Z,1.48
2023-01-27T07:43:58.259Z,1.15
2023-01-27T07:46:28.603Z,1.10
2023-01-27T07:48:58.995Z,1.33
2023-01-27T07:51:29.223Z,1.02
2023-01-27T07:54:01.976Z,1.30
2023-01-27T07:56:32.579Z,1.20
2023-01-27T07:59:03.041Z,0.75
2023-01-27T08:01:34.911Z,1.10
2023-01-27T08:04:07.654Z,1.08
2023-01-27T08:06:41.600Z,1.02
2023-01-27T08:09:14.344Z,0.88
2023-01-27T08:11:46.008Z,1.20
2023-01-27T08:14:16.460Z,0.70
2023-01-27T08:16:47.159Z,1.10
2023-01-27T08:19:17.779Z,1.13
2023-01-27T08:21:47.956Z,1.00
2023-01-27T08:24:18.357Z,1.10
2023-01-27T08:26:48.721Z,0.95
2023-01-27T08:29:19.149Z,0.90
2023-01-27T08:31:49.962Z,0.90
2023-01-27T08:34:20.932Z,0.85
2023-01-27T08:36:51.305Z,0.90
2023-01-27T08:39:23.029Z,0.90
2023-01-27T08:41:53.462Z,0.73
2023-01-27T08:44:24.238Z,0.90
2023-01-27T08:46:54.698Z,0.85
2023-01-27T08:49:25.343Z,1.30
2023-01-27T08:51:55.641Z,0.93
2023-01-27T08:54:26.222Z,1.00
2023-01-27T08:56:56.461Z,1.02
2023-01-27T08:59:26.985Z,0.80
2023-01-27T09:01:57.155Z,1.10
2023-01-27T09:04:27.641Z,1.38
2023-01-27T09:06:57.974Z,1.10
2023-01-27T09:09:28.172Z,1.13
2023-01-27T09:11:58.373Z,1.20
2023-01-27T09:14:28.655Z,1.38
2023-01-27T09:16:58.923Z,1.13
2023-01-27T09:19:29.280Z,1.02
2023-01-27T09:21:59.577Z,0.93
2023-01-27T09:24:29.864Z,1.10
2023-01-27T09:27:01.100Z,1.02
2023-01-27T09:29:32.831Z,0.90
2023-01-27T09:32:03.084Z,1.08
2023-01-27T09:34:33.528Z,1.05
2023-01-27T09:37:12.058Z,1.33
2023-01-27T09:40:01.893Z,1.20
2023-01-27T09:42:47.049Z,1.08
2023-01-27T09:45:30.062Z,1.50
2023-01-27T09:48:27.866Z,1.20
2023-01-27T09:51:22.821Z,1.05
2023-01-27T09:54:07.881Z,1.23
2023-01-27T09:57:02.611Z,1.00
2023-01-27T10:00:09.881Z,0.85
2023-01-27T10:03:15.367Z,1.02
2023-01-27T10:06:09.899Z,1.38
2023-01-27T10:08:52.757Z,1.27
2023-01-27T10:11:22.973Z,1.30
2023-01-27T10:14:24.125Z,1.33
2023-01-27T10:17:17.410Z,1.52
2023-01-27T10:20:03.547Z,1.40
2023-01-27T10:23:00.839Z,1.50
2023-01-27T10:25:41.094Z,1.88
2023-01-27T10:28:19.184Z,1.50
2023-01-27T10:31:03.076Z,1.80
2023-01-27T10:33:56.991Z,1.55
2023-01-27T10:36:31.654Z,1.80
2023-01-27T10:39:05.593Z,1.67
2023-01-27T10:41:53.777Z,1.60
2023-01-27T10:44:51.890Z,1.98
2023-01-27T10:47:44.431Z,1.73
2023-01-27T10:50:38.360Z,1.83
2023-01-27T10:53:22.337Z,1.65
2023-01-27T10:56:03.326Z,2.03
2023-01-27T10:59:07.150Z,2.20
2023-01-27T11:01:49.274Z,1.70
2023-01-27T11:04:56.235Z,1.70
2023-01-27T11:07:27.284Z,1.90
2023-01-27T11:10:11.109Z,1.83
2023-01-27T11:12:47.362Z,1.77
2023-01-27T11:15:35.357Z,1.77
2023-01-27T11:18:27.918Z,2.03
2023-01-27T11:21:11.884Z,2.22
2023-01-27T11:23:50.616Z,2.25
2023-01-27T11:26:43.656Z,1.90
2023-01-27T11:29:28.877Z,2.03
2023-01-27T11:32:20.139Z,1.85
2023-01-27T11:35:06.063Z,1.85
2023-01-27T11:37:42.639Z,1.30
2023-01-27T11:40:29.921Z,2.20
2023-01-27T11:43:01.281Z,1.77
2023-01-27T11:45:38.234Z,2.22
2023-01-27T11:48:15.638Z,1.73
2023-01-27T11:50:47.253Z,1.95
2023-01-27T11:53:26.162Z,1.70
2023-01-27T11:56:04.487Z,1.42
2023-01-27T11:59:06.023Z,2.15
2023-01-27T12:02:09.389Z,1.50
2023-01-27T12:04:42.505Z,1.83
2023-01-27T12:07:32.685Z,1.52
2023-01-27T12:10:03.427Z,1.70
2023-01-27T12:12:33.615Z,1.50
2023-01-27T12:15:06.998Z,1.40
2023-01-27T12:17:44.781Z,1.35
2023-01-27T12:20:30.415Z,1.80
2023-01-27T12:23:04.951Z,2.00
2023-01-27T12:25:50.550Z,1.90
2023-01-27T12:28:55.935Z,2.00
2023-01-27T12:31:33.668Z,1.70
2023-01-27T12:34:28.864Z,1.83
2023-01-27T12:37:00.018Z,1.90
2023-01-27T12:39:33.709Z,1.90
2023-01-27T12:42:04.219Z,1.75
2023-01-27T12:44:47.999Z,1.60
2023-01-27T12:47:30.538Z,1.83
2023-01-27T12:50:31.481Z,1.88
2023-01-27T12:53:16.912Z,1.45
2023-01-27T12:55:50.000Z,1.67
2023-01-27T12:58:35.402Z,1.73
2023-01-27T13:01:26.446Z,1.45
2023-01-27T13:04:09.220Z,1.23
2023-01-27T13:06:50.124Z,1.67
2023-01-27T13:09:40.288Z,1.88
2023-01-27T13:12:24.426Z,1.48
2023-01-27T13:15:07.817Z,1.70
2023-01-27T13:17:52.860Z,1.70
2023-01-27T13:20:28.764Z,1.48
2023-01-27T13:23:12.933Z,1.40
2023-01-27T13:25:52.142Z,1.33
2023-01-27T13:28:50.204Z,1.45
2023-01-27T13:31:25.321Z,1.60
2023-01-27T13:34:04.473Z,1.60
2023-01-27T13:37:06.512Z,1.38
2023-01-27T13:39:53.432Z,1.63
2023-01-27T13:42:37.685Z,1.55
2023-01-27T13:45:37.083Z,1.70
2023-01-27T13:48:24.789Z,1.40
2023-01-27T13:51:13.387Z,1.20
2023-01-27T13:53:44.092Z,1.45
2023-01-27T13:56:28.437Z,1.38
2023-01-27T13:59:17.132Z,1.30
2023-01-27T14:02:23.731Z,1.35
2023-01-27T14:05:27.878Z,1.75
2023-01-27T14:08:09.770Z,1.10
2023-01-27T14:11:11.210Z,1.50
2023-01-27T14:13:51.890Z,2.03
2023-01-27T14:16:29.305Z,1.30
2023-01-27T14:19:40.481Z,1.45
2023-01-27T14:22:32.458Z,1.60
2023-01-27T14:25:07.838Z,1.55
2023-01-27T14:27:49.058Z,1.20
2023-01-27T14:30:29.216Z,1.70
2023-01-27T14:33:31.851Z,1.10
2023-01-27T14:36:19.151Z,1.42
2023-01-27T14:39:04.665Z,1.50
2023-01-27T14:41:44.850Z,1.30
2023-01-27T14:44:43.850Z,1.08
2023-01-27T14:47:33.551Z,1.23
2023-01-27T14:50:32.594Z,1.38
2023-01-27T14:53:33.017Z,1.50
2023-01-27T14:56:30.424Z,1.75
2023-01-27T14:59:39.573Z,1.38
2023-01-27T15:02:27.792Z,1.48
2023-01-27T15:05:20.042Z,1.13
2023-01-27T15:07:57.610Z,1.40
2023-01-27T15:10:35.860Z,1.27
2023-01-27T15:13:08.881Z,1.20
2023-01-27T15:16:15.521Z,1.38
2023-01-27T15:19:21.896Z,1.50
2023-01-27T15:22:46.717Z,1.60
2023-01-27T15:25:34.998Z,1.38
2023-01-27T15:28:07.007Z,1.50
2023-01-27T15:30:40.226Z,1.23
2023-01-27T15:33:46.563Z,1.38
2023-01-27T15:36:35.229Z,1.20
2023-01-27T15:39:25.881Z,1.42
2023-01-27T15:42:05.396Z,1.30
2023-01-27T15:44:40.942Z,1.60
2023-01-27T15:47:14.280Z,1.10
2023-01-27T15:50:12.515Z,1.55
2023-01-27T15:52:51.045Z,1.10
2023-01-27T15:55:32.180Z,1.20
2023-01-27T15:58:34.909Z,1.13
2023-01-27T16:01:07.965Z,1.45
2023-01-27T16:03:39.713Z,1.08
2023-01-27T16:06:16.341Z,1.20
2023-01-27T16:08:58.706Z,1.33
2023-01-27T16:11:31.667Z,1.10
2023-01-27T16:14:28.605Z,1.50
2023-01-27T16:16:58.725Z,1.23
2023-01-27T16:19:46.184Z,1.20
2023-01-27T16:22:24.354Z,1.17
2023-01-27T16:25:04.115Z,1.20
2023-01-27T16:28:04.480Z,1.40
2023-01-27T16:30:46.823Z,1.38
2023-01-27T16:33:30.280Z,1.02
2023-01-27T16:36:11.159Z,1.30
2023-01-27T16:38:47.256Z,1.08
2023-01-27T16:41:21.471Z,1.20
2023-01-27T16:44:14.788Z,1.30
2023-01-27T16:47:14.987Z,1.30
2023-01-27T16:49:47.364Z,1.20
2023-01-27T16:52:42.454Z,1.30
2023-01-27T16:55:25.967Z,1.10
2023-01-27T16:57:58.661Z,1.40
2023-01-27T17:00:34.156Z,1.13
2023-01-27T17:03:12.208Z,1.58
2023-01-27T17:05:44.438Z,1.40
2023-01-27T17:08:37.378Z,0.93
2023-01-27T17:11:24.190Z,1.40
2023-01-27T17:14:06.025Z,1.35
2023-01-27T17:16:54.941Z,1.40
2023-01-27T17:19:33.490Z,1.27
2023-01-27T17:22:11.972Z,1.50
2023-01-27T17:24:51.200Z,1.30
2023-01-27T17:27:41.854Z,1.50
2023-01-27T17:30:18.602Z,1.13
2023-01-27T17:32:55.650Z,1.30
2023-01-27T17:35:30.594Z,1.30
2023-01-27T17:38:21.872Z,1.30
2023-01-27T17:40:54.730Z,1.58
2023-01-27T17:43:34.031Z,1.50
2023-01-27T17:46:18.786Z,1.80
2023-01-27T17:48:56.976Z,1.45
2023-01-27T17:51:36.563Z,1.52
2023-01-27T17:54:23.013Z,1.40
2023-01-27T17:57:22.859Z,1.15
2023-01-27T18:00:11.464Z,1.77
2023-01-27T18:03:01.838Z,1.45
2023-01-27T18:05:36.170Z,1.38
2023-01-27T18:08:08.424Z,1.27
2023-01-27T18:10:45.655Z,1.67
2023-01-27T18:13:22.550Z,1.50
2023-01-27T18:16:04.178Z,1.55
2023-01-27T18:18:37.148Z,1.55
2023-01-27T18:21:13.287Z,1.38
2023-01-27T18:23:51.297Z,1.52
2023-01-27T18:26:35.446Z,1.60
2023-01-27T18:29:16.042Z,1.60
2023-01-27T18:32:22.387Z,1.20
2023-01-27T18:34:59.120Z,1.40
2023-01-27T18:37:37.780Z,1.48
2023-01-27T18:40:29.725Z,1.67
2023-01-27T18:43:00.853Z,1.60
2023-01-27T18:45:31.283Z,1.42
2023-01-27T18:48:02.671Z,1.88
2023-01-27T18:50:33.030Z,1.88
2023-01-27T18:53:03.258Z,1.80
2023-01-27T18:55:33.569Z,1.70
2023-01-27T18:58:03.850Z,1.70
2023-01-27T19:00:53.896Z,1.42
2023-01-27T19:03:31.671Z,1.30
2023-01-27T19:06:02.018Z,1.33
2023-01-27T19:08:32.464Z,1.60
2023-01-27T19:11:03.074Z,1.45
2023-01-27T19:13:33.380Z,1.83
2023-01-27T19:16:04.294Z,2.00
2023-01-27T19:18:40.000Z,1.65
2023-01-27T19:21:15.920Z,1.65
2023-01-27T19:23:47.467Z,1.95
2023-01-27T19:26:20.611Z,1.75
2023-01-27T19:29:01.003Z,2.00
2023-01-27T19:31:37.445Z,1.77
2023-01-27T19:34:08.470Z,1.73
2023-01-27T19:36:47.512Z,1.70
2023-01-27T19:39:21.478Z,1.80
2023-01-27T19:41:52.584Z,1.60
2023-01-27T19:44:23.473Z,1.55
2023-01-27T19:46:53.757Z,1.52
2023-01-27T19:49:24.035Z,1.95
2023-01-27T19:51:55.275Z,1.80
2023-01-27T19:54:25.635Z,1.98
2023-01-27T19:56:55.948Z,1.60
2023-01-27T19:59:26.810Z,1.70
2023-01-27T20:01:58.364Z,1.65
2023-01-27T20:04:28.582Z,1.77
2023-01-27T20:06:58.867Z,1.83
2023-01-27T20:09:29.047Z,1.95
2023-01-27T20:11:59.320Z,1.65
2023-01-27T20:14:30.099Z,1.67
2023-01-27T20:17:01.605Z,1.55
2023-01-27T20:19:32.341Z,1.58
2023-01-27T20:22:03.396Z,2.03
2023-01-27T20:24:34.018Z,2.08
2023-01-27T20:27:04.589Z,2.50
2023-01-27T20:29:37.035Z,2.38
2023-01-27T20:32:10.987Z,2.38
2023-01-27T20:34:42.131Z,2.88
2023-01-27T20:37:12.563Z,2.83
2023-01-27T20:39:42.758Z,2.90
2023-01-27T20:42:13.217Z,2.83
2023-01-27T20:44:43.430Z,2.72
2023-01-27T20:47:15.053Z,3.20
2023-01-27T20:49:46.161Z,2.67
2023-01-27T20:52:16.414Z,2.70
2023-01-27T20:54:46.703Z,2.83
2023-01-27T20:57:17.668Z,2.83
2023-01-27T20:59:47.921Z,2.80
2023-01-27T21:02:19.585Z,2.80
2023-01-27T21:04:50.116Z,2.90
2023-01-27T21:07:20.609Z,3.05
2023-01-27T21:09:51.107Z,3.03
2023-01-27T21:12:21.865Z,2.78
2023-01-27T21:14:52.105Z,3.47
2023-01-27T21:17:22.345Z,4.43
2023-01-27T21:19:52.884Z,4.20
2023-01-27T21:22:23.137Z,3.92
2023-01-27T21:24:53.285Z,3.63
2023-01-27T21:27:23.491Z,4.20
2023-01-27T21:29:54.513Z,3.60
2023-01-27T21:32:24.689Z,3.95
2023-01-27T21:34:54.881Z,3.72
2023-01-27T21:37:25.344Z,3.72
2023-01-27T21:39:55.562Z,3.90
2023-01-27T21:42:44.034Z,4.00
2023-01-27T21:45:17.350Z,3.55
2023-01-27T21:47:47.707Z,3.90
2023-01-27T21:50:19.033Z,3.60
2023-01-27T21:55:35.720Z,3.92
2023-01-27T21:58:05.943Z,4.10
2023-01-27T22:00:36.367Z,3.95
2023-01-27T22:03:07.207Z,3.97
2023-01-27T22:05:40.962Z,4.00
2023-01-27T22:08:14.679Z,4.57
2023-01-27T22:10:44.919Z,4.20
2023-01-27T22:13:15.887Z,4.72
2023-01-27T22:15:52.360Z,4.05
2023-01-27T22:18:22.556Z,4.68
2023-01-27T22:20:52.897Z,4.95
2023-01-27T22:23:23.428Z,4.18
2023-01-27T22:25:56.886Z,3.97
2023-01-27T22:28:28.221Z,3.50
2023-01-27T22:31:02.345Z,4.25
2023-01-27T22:33:34.080Z,4.13
2023-01-27T22:36:06.807Z,4.32
2023-01-27T22:38:40.613Z,3.75
2023-01-27T22:41:10.995Z,3.80
2023-01-27T22:43:41.443Z,4.10
2023-01-27T22:46:11.879Z,4.40
2023-01-27T22:48:42.174Z,4.10
2023-01-27T22:51:12.640Z,4.28
2023-01-27T22:53:42.985Z,3.63
2023-01-27T22:56:13.366Z,4.45
2023-01-27T22:58:43.650Z,4.30
2023-01-27T23:01:14.155Z,3.80
2023-01-27T23:03:44.605Z,4.07
2023-01-27T23:06:15.911Z,3.70
2023-01-27T23:08:46.285Z,3.90
2023-01-27T23:11:16.694Z,4.68
2023-01-27T23:13:47.827Z,4.20
2023-01-27T23:16:18.359Z,4.20
2023-01-27T23:18:48.702Z,3.75
2023-01-27T23:21:18.949Z,3.65
2023-01-27T23:23:49.180Z,4.22
2023-01-27T23:26:19.733Z,3.30
2023-01-27T23:28:49.915Z,3.30
2023-01-27T23:31:20.427Z,3.72
2023-01-27T23:33:50.859Z,4.13
2023-01-27T23:36:21.526Z,4.13
2023-01-27T23:38:51.854Z,3.88
2023-01-27T23:41:23.050Z,3.90
2023-01-27T23:43:57.779Z,3.90
2023-01-27T23:46:29.767Z,3.72
2023-01-27T23:49:00.171Z,3.70
2023-01-27T23:51:30.400Z,4.03
2023-01-27T23:54:00.639Z,3.67
2023-01-27T23:56:31.120Z,3.47
2023-01-27T23:59:01.305Z,3.60
